createdAt,value
2019-03-18T00:02:28.016Z,1.30
2019-03-18T00:04:57.698Z,1.20
2019-03-18T00:07:27.939Z,1.27
2019-03-18T00:09:58.331Z,1.43
2019-03-18T00:12:28.589Z,0.90
2019-03-18T00:15:01.495Z,1.25
2019-03-18T00:17:31.023Z,1.20
2019-03-18T00:20:00.731Z,1.10
2019-03-18T00:22:30.978Z,1.22
2019-03-18T00:25:00.658Z,1.00
2019-03-18T00:27:30.891Z,1.25
2019-03-18T00:30:00.587Z,1.40
2019-03-18T00:32:30.817Z,1.60
2019-03-18T00:35:00.494Z,1.60
2019-03-18T00:37:30.711Z,1.33
2019-03-18T00:40:00.377Z,1.33
2019-03-18T00:42:30.700Z,2.10
2019-03-18T00:45:01.940Z,0.97
2019-03-18T00:47:32.171Z,1.23
2019-03-18T00:50:02.520Z,1.00
2019-03-18T00:52:32.182Z,1.07
2019-03-18T00:55:02.412Z,1.17
2019-03-18T00:57:32.080Z,1.20
2019-03-18T01:00:02.328Z,1.20
2019-03-18T01:02:32.646Z,1.30
2019-03-18T01:05:02.998Z,1.23
2019-03-18T01:07:32.659Z,1.10
2019-03-18T01:10:02.254Z,1.10
2019-03-18T01:12:32.486Z,1.40
2019-03-18T01:15:02.151Z,1.13
2019-03-18T01:17:32.391Z,1.33
2019-03-18T01:20:02.097Z,1.20
2019-03-18T01:22:31.683Z,1.60
2019-03-18T01:25:01.256Z,1.03
2019-03-18T01:27:31.508Z,1.60
2019-03-18T01:30:01.197Z,1.00
2019-03-18T01:32:31.523Z,1.30
2019-03-18T01:35:01.244Z,1.17
2019-03-18T01:37:31.488Z,1.50
2019-03-18T01:40:01.235Z,1.07
2019-03-18T01:42:31.492Z,1.00
2019-03-18T01:45:01.283Z,1.07
2019-03-18T01:47:31.515Z,1.03
2019-03-18T01:50:01.215Z,1.50
2019-03-18T01:52:31.472Z,1.80
2019-03-18T01:55:01.136Z,1.23
2019-03-18T01:57:30.717Z,1.00
2019-03-18T02:00:00.920Z,1.07
2019-03-18T02:02:31.248Z,1.17
2019-03-18T02:05:01.612Z,1.57
2019-03-18T02:07:31.911Z,1.50
2019-03-18T02:10:02.242Z,1.30
2019-03-18T02:12:32.583Z,1.53
2019-03-18T02:15:02.291Z,1.80
2019-03-18T02:17:32.568Z,1.30
2019-03-18T02:20:02.248Z,1.53
2019-03-18T02:22:32.500Z,1.40
2019-03-18T02:25:02.170Z,1.20
2019-03-18T02:27:32.561Z,1.40
2019-03-18T02:30:02.290Z,1.50
2019-03-18T02:32:32.529Z,1.70
2019-03-18T02:35:03.171Z,1.40
2019-03-18T02:37:33.532Z,1.10
2019-03-18T02:40:03.339Z,1.50
2019-03-18T02:42:33.580Z,1.55
2019-03-18T02:45:03.934Z,1.03
2019-03-18T02:47:33.719Z,1.43
2019-03-18T02:50:04.232Z,1.05
2019-03-18T02:52:33.918Z,1.30
2019-03-18T02:55:03.487Z,1.03
2019-03-18T02:57:33.727Z,1.03
2019-03-18T03:00:05.742Z,1.63
2019-03-18T03:02:35.444Z,1.30
2019-03-18T03:05:05.727Z,1.10
2019-03-18T03:07:35.346Z,2.03
2019-03-18T03:10:05.913Z,1.40
2019-03-18T03:12:35.615Z,1.07
2019-03-18T03:15:06.964Z,1.27
2019-03-18T03:17:37.303Z,1.30
2019-03-18T03:20:07.824Z,1.27
2019-03-18T03:22:38.146Z,1.63
2019-03-18T03:25:08.932Z,1.40
2019-03-18T03:27:39.332Z,1.50
2019-03-18T03:30:09.161Z,1.40
2019-03-18T03:32:39.399Z,1.20
2019-03-18T03:35:10.017Z,1.42
2019-03-18T03:37:40.476Z,1.53
2019-03-18T03:40:11.003Z,1.30
2019-03-18T03:42:41.368Z,1.20
2019-03-18T03:45:11.866Z,1.97
2019-03-18T03:47:42.264Z,1.40
2019-03-18T03:50:12.808Z,1.50
2019-03-18T03:52:43.140Z,1.27
2019-03-18T03:55:13.588Z,1.43
2019-03-18T03:57:44.139Z,1.67
2019-03-18T04:00:14.678Z,1.60
2019-03-18T04:02:45.175Z,2.20
2019-03-18T04:05:15.525Z,1.90
2019-03-18T04:07:45.262Z,1.50
2019-03-18T04:10:15.622Z,1.43
2019-03-18T04:12:45.288Z,1.60
2019-03-18T04:15:15.573Z,1.17
2019-03-18T04:17:45.872Z,1.90
2019-03-18T04:20:15.579Z,1.47
2019-03-18T04:22:45.221Z,1.30
2019-03-18T04:25:15.461Z,1.70
2019-03-18T04:27:45.134Z,1.43
2019-03-18T04:30:15.393Z,1.50
2019-03-18T04:32:45.065Z,2.50
2019-03-18T04:35:15.307Z,1.83
2019-03-18T04:37:45.632Z,1.40
2019-03-18T04:40:15.338Z,1.57
2019-03-18T04:42:45.583Z,1.40
2019-03-18T04:45:15.254Z,1.97
2019-03-18T04:47:45.403Z,1.53
2019-03-18T04:50:15.098Z,1.63
2019-03-18T04:52:45.329Z,1.60
2019-03-18T04:55:15.662Z,2.00
2019-03-18T04:57:45.990Z,1.20
2019-03-18T05:00:15.879Z,2.03
2019-03-18T05:02:46.135Z,1.90
2019-03-18T05:05:15.812Z,1.63
2019-03-18T05:07:46.068Z,1.63
2019-03-18T05:10:16.378Z,1.93
2019-03-18T05:12:46.708Z,1.62
2019-03-18T05:15:16.385Z,1.60
2019-03-18T05:17:46.628Z,1.53
2019-03-18T05:20:16.950Z,1.43
2019-03-18T05:22:47.284Z,1.93
2019-03-18T05:25:17.588Z,1.47
2019-03-18T05:27:47.922Z,1.60
2019-03-18T05:30:17.603Z,1.63
2019-03-18T05:32:47.814Z,1.10
2019-03-18T05:35:17.536Z,1.40
2019-03-18T05:37:47.782Z,1.30
2019-03-18T05:40:17.431Z,2.13
2019-03-18T05:42:47.658Z,1.50
2019-03-18T05:45:17.354Z,1.50
2019-03-18T05:47:47.600Z,1.30
2019-03-18T05:50:17.296Z,2.00
2019-03-18T05:52:47.532Z,2.00
2019-03-18T05:55:17.856Z,1.30
2019-03-18T05:57:48.159Z,2.03
2019-03-18T06:00:18.560Z,1.57
2019-03-18T06:02:48.834Z,2.13
2019-03-18T06:05:20.120Z,1.47
2019-03-18T06:07:50.427Z,1.53
2019-03-18T06:10:20.751Z,1.63
2019-03-18T06:12:50.421Z,1.60
2019-03-18T06:15:20.652Z,1.87
2019-03-18T06:17:52.711Z,1.47
2019-03-18T06:20:22.920Z,1.83
2019-03-18T06:22:53.263Z,2.30
2019-03-18T06:25:23.751Z,1.40
2019-03-18T06:27:54.058Z,1.97
2019-03-18T06:30:24.375Z,1.60
2019-03-18T06:32:54.708Z,1.30
2019-03-18T06:35:25.034Z,1.33
2019-03-18T06:37:54.725Z,1.87
2019-03-18T06:40:24.930Z,1.62
2019-03-18T06:42:55.207Z,1.73
2019-03-18T06:45:25.531Z,1.60
2019-03-18T06:48:04.757Z,1.77
2019-03-18T06:50:27.223Z,2.15
2019-03-18T06:52:57.468Z,2.20
2019-03-18T06:55:27.152Z,1.33
2019-03-18T06:57:57.750Z,1.97
2019-03-18T07:00:28.069Z,1.60
2019-03-18T07:02:58.387Z,2.63
2019-03-18T07:05:28.702Z,1.87
2019-03-18T07:07:58.366Z,1.93
2019-03-18T07:10:28.603Z,1.57
2019-03-18T07:12:58.953Z,1.30
2019-03-18T07:15:29.284Z,1.60
2019-03-18T07:17:59.619Z,1.73
2019-03-18T07:20:29.955Z,1.55
2019-03-18T07:23:00.290Z,1.70
2019-03-18T07:25:30.635Z,1.73
2019-03-18T07:28:00.971Z,1.67
2019-03-18T07:30:31.329Z,1.73
2019-03-18T07:33:01.671Z,1.80
2019-03-18T07:35:32.033Z,1.80
2019-03-18T07:38:02.370Z,1.93
2019-03-18T07:40:32.719Z,2.07
2019-03-18T07:43:03.072Z,1.80
2019-03-18T07:45:33.411Z,1.60
2019-03-18T07:48:06.265Z,1.77
2019-03-18T07:50:35.665Z,1.57
2019-03-18T07:53:05.982Z,2.23
2019-03-18T07:55:35.733Z,1.87
2019-03-18T07:58:06.018Z,1.60
2019-03-18T08:00:35.800Z,1.60
2019-03-18T08:03:06.116Z,1.80
2019-03-18T08:05:35.776Z,1.97
2019-03-18T08:08:07.891Z,1.77
2019-03-18T08:10:37.491Z,2.00
2019-03-18T08:13:07.118Z,1.80
2019-03-18T08:15:36.693Z,2.13
2019-03-18T08:18:06.279Z,2.37
2019-03-18T08:20:35.853Z,1.77
2019-03-18T08:23:05.443Z,2.07
2019-03-18T08:25:35.692Z,1.80
2019-03-18T08:28:06.099Z,2.17
2019-03-18T08:30:35.776Z,2.00
2019-03-18T08:33:06.027Z,1.77
2019-03-18T08:35:35.703Z,1.83
2019-03-18T08:38:05.979Z,1.60
2019-03-18T08:40:35.651Z,1.72
2019-03-18T08:43:05.257Z,1.83
2019-03-18T08:45:34.872Z,1.93
2019-03-18T08:48:05.120Z,1.50
2019-03-18T08:50:34.787Z,1.85
2019-03-18T08:53:05.065Z,1.77
2019-03-18T08:55:34.859Z,1.85
2019-03-18T08:58:04.447Z,2.07
2019-03-18T09:00:34.699Z,1.80
2019-03-18T09:03:05.026Z,2.13
2019-03-18T09:05:35.383Z,2.30
2019-03-18T09:08:05.788Z,1.90
2019-03-18T09:10:35.483Z,2.20
2019-03-18T09:13:05.739Z,2.13
2019-03-18T09:15:36.095Z,2.08
2019-03-18T09:18:06.435Z,1.90
2019-03-18T09:20:36.123Z,2.03
2019-03-18T09:23:05.699Z,2.33
2019-03-18T09:25:35.306Z,2.03
2019-03-18T09:28:05.844Z,1.93
2019-03-18T09:30:35.527Z,1.93
2019-03-18T09:33:05.778Z,2.10
2019-03-18T09:35:35.478Z,2.87
2019-03-18T09:38:05.707Z,1.53
2019-03-18T09:40:35.369Z,2.00
2019-03-18T09:43:05.654Z,1.80
2019-03-18T09:45:35.968Z,1.72
2019-03-18T09:48:06.295Z,1.97
2019-03-18T09:50:37.911Z,1.92
2019-03-18T09:53:08.262Z,2.50
2019-03-18T09:55:37.977Z,2.33
2019-03-18T09:58:08.196Z,2.30
2019-03-18T10:00:37.911Z,2.43
2019-03-18T10:03:08.139Z,1.77
2019-03-18T10:05:37.858Z,2.30
2019-03-18T10:08:08.080Z,2.17
2019-03-18T10:10:37.787Z,2.40
2019-03-18T10:13:07.411Z,2.37
2019-03-18T10:15:36.981Z,2.10
2019-03-18T10:18:07.245Z,2.23
2019-03-18T10:20:36.915Z,1.90
2019-03-18T10:23:07.192Z,2.00
2019-03-18T10:25:36.898Z,2.23
2019-03-18T10:28:06.475Z,2.10
2019-03-18T10:30:36.095Z,2.43
2019-03-18T10:33:05.707Z,2.10
2019-03-18T10:35:35.955Z,2.52
2019-03-18T10:38:06.320Z,2.67
2019-03-18T10:40:36.664Z,2.27
2019-03-18T10:43:07.011Z,2.43
2019-03-18T10:45:36.686Z,2.40
2019-03-18T10:48:06.937Z,1.90
2019-03-18T10:50:36.611Z,2.10
2019-03-18T10:53:06.897Z,2.47
2019-03-18T10:55:36.538Z,2.40
2019-03-18T10:58:07.040Z,2.50
2019-03-18T11:00:36.780Z,1.80
2019-03-18T11:03:06.499Z,1.60
2019-03-18T11:05:36.732Z,2.60
2019-03-18T11:08:07.075Z,1.90
2019-03-18T11:10:37.452Z,2.70
2019-03-18T11:13:07.766Z,2.60
2019-03-18T11:15:38.125Z,2.03
2019-03-18T11:18:07.814Z,2.50
2019-03-18T11:20:38.071Z,2.07
2019-03-18T11:23:08.416Z,2.47
2019-03-18T11:25:38.063Z,2.10
2019-03-18T11:28:08.315Z,2.20
2019-03-18T11:30:37.964Z,2.60
2019-03-18T11:33:08.248Z,2.50
2019-03-18T11:35:37.927Z,2.52
2019-03-18T11:38:07.534Z,1.90
2019-03-18T11:40:37.121Z,2.20
2019-03-18T11:43:07.379Z,2.40
2019-03-18T11:45:37.817Z,1.40
2019-03-18T11:48:08.141Z,2.03
2019-03-18T11:50:37.839Z,2.27
2019-03-18T11:53:14.217Z,2.37
2019-03-18T11:55:40.189Z,1.87
2019-03-18T11:58:09.855Z,2.33
2019-03-18T12:00:40.126Z,1.93
2019-03-18T12:03:10.465Z,2.07
2019-03-18T12:05:40.180Z,1.70
2019-03-18T12:08:09.872Z,2.27
2019-03-18T12:10:39.435Z,2.00
2019-03-18T12:13:09.675Z,2.30
2019-03-18T12:15:39.376Z,2.27
2019-03-18T12:18:08.963Z,1.70
2019-03-18T12:20:38.542Z,2.17
2019-03-18T12:23:08.136Z,2.30
2019-03-18T12:25:37.734Z,2.03
2019-03-18T12:28:07.407Z,2.37
2019-03-18T12:30:37.655Z,2.73
2019-03-18T12:33:07.353Z,2.87
2019-03-18T12:35:37.608Z,2.40
2019-03-18T12:38:07.927Z,2.23
2019-03-18T12:40:37.617Z,1.93
2019-03-18T12:43:07.901Z,2.63
2019-03-18T12:45:38.359Z,2.70
2019-03-18T12:48:08.683Z,2.50
2019-03-18T12:50:54.521Z,2.80
2019-03-18T12:53:10.356Z,2.37
2019-03-18T12:55:40.036Z,2.97
2019-03-18T12:58:10.267Z,2.83
2019-03-18T13:00:40.067Z,2.77
2019-03-18T13:03:10.344Z,2.70
2019-03-18T13:05:40.696Z,3.20
2019-03-18T13:08:11.114Z,2.27
2019-03-18T13:10:40.780Z,2.40
2019-03-18T13:13:10.401Z,2.27
2019-03-18T13:15:40.008Z,2.77
2019-03-18T13:18:09.584Z,2.73
2019-03-18T13:20:39.186Z,2.40
2019-03-18T13:23:09.448Z,2.70
2019-03-18T13:25:39.154Z,2.77
2019-03-18T13:28:08.801Z,2.67
2019-03-18T13:30:38.398Z,3.10
2019-03-18T13:33:07.986Z,2.40
2019-03-18T13:35:37.592Z,2.93
2019-03-18T13:38:07.805Z,3.10
2019-03-18T13:40:37.493Z,2.40
2019-03-18T13:43:07.787Z,2.47
2019-03-18T13:45:37.591Z,2.30
2019-03-18T13:48:07.177Z,1.40
2019-03-18T13:50:36.791Z,1.30
2019-03-18T13:53:06.389Z,1.13
2019-03-18T13:55:36.627Z,1.52
2019-03-18T13:58:06.970Z,0.97
2019-03-18T14:00:37.307Z,0.90
2019-03-18T14:03:06.999Z,1.07
2019-03-18T14:05:37.244Z,0.80
2019-03-18T14:08:07.654Z,0.80
2019-03-18T14:10:37.328Z,0.80
2019-03-18T14:13:07.587Z,0.90
2019-03-18T14:15:37.927Z,0.43
2019-03-18T14:18:08.263Z,0.70
2019-03-18T14:20:37.944Z,0.40
2019-03-18T14:23:07.541Z,0.50
2019-03-18T14:25:37.119Z,0.70
2019-03-18T14:28:07.435Z,0.67
2019-03-18T14:30:37.160Z,1.03
2019-03-18T14:33:07.407Z,0.83
2019-03-18T14:35:37.783Z,0.73
2019-03-18T14:38:08.153Z,1.17
2019-03-18T14:40:37.907Z,1.13
2019-03-18T14:43:08.147Z,0.90
2019-03-18T14:45:37.872Z,1.43
2019-03-18T14:48:07.447Z,1.80
2019-03-18T14:50:37.708Z,2.25
2019-03-18T14:53:08.064Z,1.80
2019-03-18T14:55:38.445Z,1.73
2019-03-18T14:58:08.769Z,2.00
2019-03-18T15:00:38.581Z,1.43
2019-03-18T15:03:08.871Z,1.90
2019-03-18T15:05:39.243Z,2.10
2019-03-18T15:08:09.597Z,1.40
2019-03-18T15:10:39.304Z,2.00
2019-03-18T15:13:09.547Z,1.60
2019-03-18T15:15:39.920Z,1.50
2019-03-18T15:18:10.257Z,1.20
2019-03-18T15:20:39.976Z,1.40
2019-03-18T15:23:10.291Z,1.67
2019-03-18T15:25:39.962Z,1.80
2019-03-18T15:28:09.623Z,1.40
2019-03-18T15:30:39.198Z,2.03
2019-03-18T15:33:09.468Z,2.13
2019-03-18T15:35:39.123Z,2.60
2019-03-18T15:38:09.375Z,2.67
2019-03-18T15:40:39.091Z,2.63
2019-03-18T15:43:09.378Z,2.27
2019-03-18T15:45:39.171Z,2.70
2019-03-18T15:48:08.778Z,1.93
2019-03-18T15:50:39.044Z,1.53
2019-03-18T15:53:09.526Z,1.80
2019-03-18T15:55:40.094Z,1.50
2019-03-18T15:58:09.718Z,1.23
2019-03-18T16:00:39.244Z,1.80
2019-03-18T16:03:09.483Z,2.13
2019-03-18T16:05:39.186Z,1.47
2019-03-18T16:08:08.808Z,2.37
2019-03-18T16:10:38.449Z,1.90
2019-03-18T16:13:08.011Z,1.57
2019-03-18T16:15:38.542Z,1.40
2019-03-18T16:18:08.199Z,1.43
2019-03-18T16:20:37.812Z,1.60
2019-03-18T16:23:07.783Z,1.73
2019-03-18T16:25:38.035Z,1.77
2019-03-18T16:28:08.563Z,1.60
2019-03-18T16:30:38.258Z,1.83
2019-03-18T16:35:49.925Z,1.83
2019-03-18T16:38:19.524Z,1.63
2019-03-18T16:40:49.111Z,1.77
2019-03-18T16:43:19.597Z,1.60
2019-03-18T16:45:49.265Z,1.87
2019-03-18T16:48:19.516Z,1.40
2019-03-18T16:50:49.181Z,1.33
2019-03-18T16:53:20.911Z,2.00
2019-03-18T16:55:51.484Z,2.33
2019-03-18T16:58:21.193Z,2.27
2019-03-18T17:00:51.446Z,2.23
2019-03-18T17:03:21.139Z,2.97
2019-03-18T17:05:51.425Z,2.17
2019-03-18T17:08:21.113Z,2.10
2019-03-18T17:10:51.351Z,1.80
2019-03-18T17:13:21.105Z,2.23
2019-03-18T17:15:51.463Z,2.00
2019-03-18T17:18:21.159Z,3.20
2019-03-18T17:20:51.374Z,1.90
2019-03-18T17:23:21.071Z,2.10
2019-03-18T17:25:50.678Z,1.63
2019-03-18T17:28:20.296Z,1.80
2019-03-18T17:30:50.544Z,1.70
2019-03-18T17:33:20.915Z,2.00
2019-03-18T17:35:51.290Z,2.20
2019-03-18T17:38:20.972Z,1.97
2019-03-18T17:40:51.248Z,1.67
2019-03-18T17:43:20.979Z,2.17
2019-03-18T17:45:51.268Z,1.53
2019-03-18T17:48:20.958Z,2.03
2019-03-18T17:50:50.570Z,2.30
2019-03-18T17:53:20.850Z,1.43
2019-03-18T17:55:50.530Z,1.87
2019-03-18T17:58:20.785Z,1.50
2019-03-18T18:00:52.580Z,1.77
2019-03-18T18:03:22.986Z,2.13
2019-03-18T18:05:52.658Z,3.87
2019-03-18T18:08:22.297Z,2.00
2019-03-18T18:10:51.925Z,1.67
2019-03-18T18:13:21.554Z,2.30
2019-03-18T18:15:51.161Z,3.43
2019-03-18T18:18:21.408Z,2.60
2019-03-18T18:20:54.566Z,2.17
2019-03-18T18:23:24.271Z,3.10
2019-03-18T18:25:53.915Z,1.87
2019-03-18T18:28:23.490Z,2.70
2019-03-18T18:30:53.833Z,2.03
2019-03-18T18:33:23.591Z,2.70
2019-03-18T18:35:53.361Z,2.60
2019-03-18T18:38:22.951Z,2.83
2019-03-18T18:40:52.580Z,2.37
2019-03-18T18:43:22.167Z,2.53
2019-03-18T18:45:52.430Z,1.70
2019-03-18T18:48:22.119Z,1.90
2019-03-18T18:50:52.396Z,1.90
2019-03-18T18:53:26.503Z,2.40
2019-03-18T18:55:54.360Z,1.90
2019-03-18T18:58:24.023Z,1.53
2019-03-18T19:00:54.271Z,1.87
2019-03-18T19:03:23.996Z,1.90
2019-03-18T19:05:53.655Z,1.60
2019-03-18T19:08:23.276Z,1.80
2019-03-18T19:10:52.890Z,1.70
2019-03-18T19:13:22.500Z,1.53
2019-03-18T19:15:52.068Z,1.90
2019-03-18T19:18:21.681Z,2.07
2019-03-18T19:20:51.274Z,2.47
2019-03-18T19:23:21.287Z,2.30
2019-03-18T19:25:50.903Z,1.97
2019-03-18T19:28:20.467Z,2.50
2019-03-18T19:30:52.098Z,2.00
2019-03-18T19:33:21.674Z,2.30
2019-03-18T19:35:51.933Z,2.50
2019-03-18T19:38:21.611Z,3.53
2019-03-18T19:40:51.894Z,2.63
2019-03-18T19:43:21.665Z,2.20
2019-03-18T19:45:51.237Z,2.03
2019-03-18T19:48:20.886Z,2.33
2019-03-18T19:50:50.472Z,2.55
2019-03-18T19:53:20.810Z,2.40
2019-03-18T19:55:51.052Z,2.60
2019-03-18T19:58:21.715Z,2.30
2019-03-18T20:00:52.019Z,2.30
2019-03-18T20:03:23.519Z,2.57
2019-03-18T20:05:53.112Z,2.50
2019-03-18T20:08:22.719Z,2.23
2019-03-18T20:10:52.308Z,2.40
2019-03-18T20:13:21.911Z,2.50
2019-03-18T20:15:52.156Z,2.70
2019-03-18T20:18:22.521Z,2.30
2019-03-18T20:20:52.867Z,2.67
2019-03-18T20:23:22.587Z,2.43
2019-03-18T20:25:52.807Z,3.20
2019-03-18T20:28:22.479Z,2.90
2019-03-18T20:30:52.727Z,2.57
2019-03-18T20:33:22.443Z,3.20
2019-03-18T20:35:52.030Z,7.53
2019-03-18T20:38:21.615Z,9.57
2019-03-18T20:40:51.252Z,5.43
2019-03-18T20:43:20.844Z,3.10
2019-03-18T20:45:51.275Z,3.40
2019-03-18T20:48:20.974Z,4.23
2019-03-18T20:50:50.603Z,3.87
2019-03-18T20:53:21.526Z,4.23
2019-03-18T20:55:51.934Z,4.77
2019-03-18T20:58:21.594Z,4.80
2019-03-18T21:00:53.030Z,5.40
2019-03-18T21:03:22.901Z,4.17
2019-03-18T21:05:52.500Z,4.30
2019-03-18T21:08:22.110Z,4.33
2019-03-18T21:10:52.353Z,4.83
2019-03-18T21:13:22.045Z,4.07
2019-03-18T21:15:51.647Z,4.27
2019-03-18T21:18:21.551Z,5.03
2019-03-18T21:20:51.828Z,5.10
2019-03-18T21:23:22.457Z,4.33
2019-03-18T21:25:52.779Z,5.10
2019-03-18T21:28:23.118Z,5.80
2019-03-18T21:30:52.718Z,4.90
2019-03-18T21:33:22.579Z,5.23
2019-03-18T21:35:55.552Z,4.83
2019-03-18T21:38:23.838Z,6.07
2019-03-18T21:40:53.436Z,7.00
2019-03-18T21:43:23.230Z,6.40
2019-03-18T21:45:52.856Z,6.00
2019-03-18T21:48:22.507Z,5.67
2019-03-18T21:50:52.816Z,5.67
2019-03-18T21:53:23.953Z,5.40
2019-03-18T21:55:53.549Z,6.13
2019-03-18T21:58:23.188Z,4.90
2019-03-18T22:00:53.435Z,6.13
2019-03-18T22:03:24.017Z,5.93
2019-03-18T22:05:54.348Z,7.17
2019-03-18T22:08:24.369Z,7.67
2019-03-18T22:10:54.587Z,7.53
2019-03-18T22:13:25.183Z,5.70
2019-03-18T22:15:55.511Z,5.80
2019-03-18T22:18:25.639Z,8.53
2019-03-18T22:20:55.904Z,10.00
2019-03-18T22:23:26.230Z,12.77
2019-03-18T22:25:56.507Z,13.70
2019-03-18T22:28:28.174Z,10.93
2019-03-18T22:30:57.873Z,8.67
2019-03-18T22:33:28.526Z,7.23
2019-03-18T22:35:58.871Z,6.07
2019-03-18T22:38:28.535Z,4.87
2019-03-18T22:40:58.170Z,4.00
2019-03-18T22:43:28.576Z,4.17
2019-03-18T22:45:58.960Z,3.67
2019-03-18T22:48:28.648Z,3.97
2019-03-18T22:50:58.230Z,3.67
2019-03-18T22:53:28.491Z,4.13
2019-03-18T22:55:58.827Z,4.07
2019-03-18T22:58:29.027Z,4.73
2019-03-18T23:01:13.337Z,4.00
2019-03-18T23:03:43.596Z,5.03
2019-03-18T23:06:13.254Z,5.90
2019-03-18T23:08:43.403Z,6.00
2019-03-18T23:11:13.724Z,5.80
2019-03-18T23:13:44.068Z,6.00
2019-03-18T23:16:13.749Z,5.97
2019-03-18T23:18:43.965Z,5.23
2019-03-18T23:21:14.283Z,5.60
2019-03-18T23:23:44.640Z,6.40
2019-03-18T23:26:14.315Z,6.10
2019-03-18T23:28:44.578Z,7.27
2019-03-18T23:31:14.903Z,6.90
2019-03-18T23:33:45.234Z,7.93
2019-03-18T23:36:14.985Z,7.70
2019-03-18T23:38:45.199Z,8.43
2019-03-18T23:41:15.851Z,9.33
2019-03-18T23:43:46.167Z,10.00
2019-03-18T23:46:16.519Z,10.67
2019-03-18T23:48:46.859Z,10.23
2019-03-18T23:51:17.205Z,10.07
2019-03-18T23:53:47.519Z,10.70
2019-03-18T23:56:17.199Z,9.63
2019-03-18T23:58:47.479Z,9.50
